Terminal Aerodrome Forecast
Issued by NWS Pittsburgh, PA

Current Version | Previous Version | Text Only | Print | Product List | Glossary Off
Versions: 1 2 3 4 5 6 7 8 9 10 11 12 13 14 15 16 17 18 19 20 21 22 23 24 25

180
FTUS41 KPBZ 212320
TAFPIT
TAF
KPIT 212320Z 2200/2306 30010G20KT P6SM BKN100
     FM220200 32010G19KT P6SM SCT120
     FM220600 32010G20KT P6SM BKN030
     FM221600 33010G19KT P6SM SKC
     FM230000 34006KT P6SM SKC=

USA.gov is the U.S. government's official web portal to all federal, state and local government web resources and services.